»·PEaware :: N16RD KSBA-KSNA

N16RD :: KSBA-KSNA

FLIGHT INFORMATION

Flight Status: Arrived
Operator: Privately registered:
United States
More flights under this callsign
Pilot: Brett B. (12105)
Aircraft: CESSNA 182 SKYLANE
(C182)
More flights by this aircraft type
Origin: KSBA Santa Barbara Mun
United States
Destination: KSNA John Wayne-Orange Co
United States
More flights between these airports :: More routes between these airports
Route: +KWANG CMA VNY V186 BAYJY V363 POXKU V8 SLI
File this flight plan on PilotEdge
Remarks:
Altitude:
(Current/Filed)
4,000ft
Speed:
(Current/Filed)
140kts
Departed: 27-Apr-18 04:35 PM
Arrived: 27-Apr-18 05:33 PM
Distance/Time
Traveled:
108nm/0:58
Distance/Time
To Go:
Arrived

Flight Plot

Page will automatically refresh every two minutes.


Map Options




Map Legend


Flown Route
Filed Route
Departure Airport
Arrival Airport
Navaid (VOR, NDB)
Fix

Horizontal Profiles

Position Reports

Time Latitude Longitude Heading Altitude Ground
Speed
27-Apr-18 15:45 34.429177 -119.845458 61 13ft 0kts
27-Apr-18 15:46 34.429177 -119.845458 61 13ft 0kts
27-Apr-18 15:47 34.429177 -119.845458 61 13ft 0kts
27-Apr-18 15:48 34.429177 -119.845458 61 13ft 0kts
27-Apr-18 15:49 34.429177 -119.845458 61 13ft 0kts
27-Apr-18 15:50 34.429177 -119.845458 61 13ft 0kts
27-Apr-18 15:51 34.429177 -119.845458 61 13ft 0kts
27-Apr-18 15:52 34.429177 -119.845458 61 13ft 0kts
27-Apr-18 15:53 34.429177 -119.845458 61 13ft 0kts
27-Apr-18 15:54 34.429177 -119.845458 61 13ft 0kts
27-Apr-18 15:55 34.429177 -119.845458 61 13ft 0kts
27-Apr-18 15:56 34.429177 -119.845458 61 13ft 0kts
27-Apr-18 15:57 34.429177 -119.845458 61 13ft 0kts
27-Apr-18 15:58 34.429177 -119.845458 61 13ft 0kts
27-Apr-18 15:59 34.429177 -119.845458 61 13ft 0kts
27-Apr-18 16:00 34.429177 -119.845458 61 13ft 0kts
27-Apr-18 16:01 34.429177 -119.845458 61 13ft 0kts
27-Apr-18 16:02 34.429177 -119.845458 61 13ft 0kts
27-Apr-18 16:03 34.429177 -119.845458 61 13ft 0kts
27-Apr-18 16:04 34.429177 -119.845458 61 13ft 0kts
27-Apr-18 16:05 34.429177 -119.845458 61 13ft 0kts
27-Apr-18 16:06 34.429177 -119.845458 61 13ft 0kts
27-Apr-18 16:07 34.429177 -119.845458 61 13ft 0kts
27-Apr-18 16:08 34.429177 -119.845458 61 13ft 0kts
27-Apr-18 16:09 34.429177 -119.845458 61 13ft 0kts
27-Apr-18 16:10 34.429177 -119.845458 61 13ft 0kts
27-Apr-18 16:11 34.429177 -119.845458 61 13ft 0kts
27-Apr-18 16:12 34.429177 -119.845458 61 13ft 0kts
27-Apr-18 16:13 34.429177 -119.845458 61 13ft 0kts
27-Apr-18 16:14 34.429177 -119.845458 61 13ft 0kts
27-Apr-18 16:15 34.429172 -119.845468 61 13ft 0kts
27-Apr-18 16:16 34.429164 -119.845486 61 12ft 0kts
27-Apr-18 16:17 34.429164 -119.845486 61 12ft 0kts
27-Apr-18 16:18 34.428972 -119.845343 174 13ft 0kts
27-Apr-18 16:19 34.428626 -119.845238 88 13ft 5kts
27-Apr-18 16:20 34.429289 -119.843415 66 13ft 12kts
27-Apr-18 16:21 34.428552 -119.841971 164 13ft 0kts
27-Apr-18 16:22 34.429800 -119.842148 67 13ft 0kts
27-Apr-18 16:23 34.429813 -119.842109 67 13ft 0kts
27-Apr-18 16:24 34.429813 -119.842109 67 13ft 0kts
27-Apr-18 16:25 34.429822 -119.842083 67 13ft 0kts
27-Apr-18 16:26 34.429822 -119.842083 67 13ft 0kts
27-Apr-18 16:27 34.429822 -119.842083 67 13ft 0kts
27-Apr-18 16:28 34.429822 -119.842083 67 13ft 0kts
27-Apr-18 16:29 34.429920 -119.841834 65 13ft 0kts
27-Apr-18 16:30 34.429920 -119.841834 65 13ft 0kts
27-Apr-18 16:31 34.429920 -119.841834 65 13ft 0kts
27-Apr-18 16:32 34.429927 -119.841347 172 13ft 0kts
27-Apr-18 16:33 34.429925 -119.841347 172 13ft 0kts
27-Apr-18 16:34 34.419522 -119.838288 167 245ft 91kts
27-Apr-18 16:35 34.389652 -119.828429 162 1176ft 129kts
27-Apr-18 16:36 34.353310 -119.813193 159 1907ft 143kts
27-Apr-18 16:37 34.315171 -119.798475 162 2601ft 139kts
27-Apr-18 16:38 34.296404 -119.773781 55 3518ft 114kts
27-Apr-18 16:39 34.314347 -119.742571 54 4443ft 112kts
27-Apr-18 16:40 34.333577 -119.709309 54 5021ft 138kts
27-Apr-18 16:41 34.357385 -119.668417 54 4998ft 151kts
27-Apr-18 16:42 34.351400 -119.628068 143 5011ft 150kts
27-Apr-18 16:43 34.317278 -119.598774 144 5003ft 150kts
27-Apr-18 16:44 34.298615 -119.557675 94 5005ft 148kts
27-Apr-18 16:45 34.300994 -119.509210 74 5006ft 156kts
27-Apr-18 16:46 34.311912 -119.460025 74 4998ft 158kts
27-Apr-18 16:47 34.323395 -119.408496 74 5004ft 158kts
27-Apr-18 16:48 34.334836 -119.357040 74 5001ft 158kts
27-Apr-18 16:49 34.310298 -119.316294 136 5000ft 159kts
27-Apr-18 16:50 34.301584 -119.273548 95 5000ft 157kts
27-Apr-18 16:51 34.297038 -119.220924 94 5000ft 157kts
27-Apr-18 16:52 34.292471 -119.168033 94 5001ft 157kts
27-Apr-18 16:53 34.287975 -119.116151 94 5237ft 144kts
27-Apr-18 16:54 34.283975 -119.071035 95 5927ft 130kts
27-Apr-18 16:55 34.279855 -119.024007 94 6130ft 144kts
27-Apr-18 16:56 34.275519 -118.974006 94 6163ft 153kts
27-Apr-18 16:57 34.271026 -118.922123 95 6163ft 155kts
27-Apr-18 16:58 34.266524 -118.870082 95 6162ft 156kts
27-Apr-18 16:59 34.261366 -118.817673 95 6162ft 156kts
27-Apr-18 17:00 34.256081 -118.765386 95 6162ft 157kts
27-Apr-18 17:01 34.250782 -118.712954 95 6162ft 157kts
27-Apr-18 17:02 34.245727 -118.662938 95 6162ft 157kts
27-Apr-18 17:03 34.240429 -118.610519 95 6162ft 157kts
27-Apr-18 17:04 34.230251 -118.558922 106 6162ft 158kts
27-Apr-18 17:05 34.217909 -118.508072 101 6162ft 157kts
27-Apr-18 17:06 34.210264 -118.455869 105 6163ft 158kts
27-Apr-18 17:07 34.197050 -118.405257 110 6162ft 158kts
27-Apr-18 17:08 34.180701 -118.356003 111 6162ft 158kts
27-Apr-18 17:09 34.164237 -118.306607 111 6162ft 158kts
27-Apr-18 17:10 34.147816 -118.257351 111 6162ft 158kts
27-Apr-18 17:11 34.143764 -118.205951 81 6163ft 157kts
27-Apr-18 17:12 34.149877 -118.153718 81 6162ft 157kts
27-Apr-18 17:13 34.139758 -118.104472 120 6164ft 158kts
27-Apr-18 17:14 34.118258 -118.062750 120 6138ft 132kts
27-Apr-18 17:15 34.100145 -118.026919 116 6160ft 122kts
27-Apr-18 17:16 34.083525 -117.987659 116 5693ft 134kts
27-Apr-18 17:17 34.066549 -117.947450 116 4933ft 129kts
27-Apr-18 17:18 34.050111 -117.908623 116 4342ft 130kts
27-Apr-18 17:19 34.035165 -117.871548 106 4167ft 120kts
27-Apr-18 17:20 34.024515 -117.829761 106 4157ft 129kts
27-Apr-18 17:21 34.012226 -117.789671 142 4149ft 131kts
27-Apr-18 17:22 33.976227 -117.787728 181 4163ft 131kts
27-Apr-18 17:23 33.938914 -117.788684 181 4021ft 139kts
27-Apr-18 17:24 33.903040 -117.784997 171 3986ft 116kts
27-Apr-18 17:25 33.874006 -117.769824 151 3998ft 114kts
27-Apr-18 17:26 33.843430 -117.770502 201 3626ft 124kts
27-Apr-18 17:27 33.812268 -117.785241 202 3098ft 109kts
27-Apr-18 17:28 33.785096 -117.799695 203 2522ft 115kts
27-Apr-18 17:29 33.754205 -117.816890 208 1458ft 126kts
27-Apr-18 17:30 33.724376 -117.835820 208 1208ft 123kts
27-Apr-18 17:31 33.695735 -117.854264 208 310ft 107kts
27-Apr-18 17:32 33.677315 -117.865865 201 59ft 14kts
27-Apr-18 17:33 33.676862 -117.865654 118 59ft 0kts
27-Apr-18 17:34 33.675720 -117.866032 207 59ft 15kts
27-Apr-18 17:35 33.673443 -117.866896 156 59ft 8kts
27-Apr-18 17:36 33.671401 -117.867907 121 59ft 8kts
27-Apr-18 17:37 33.671464 -117.867469 27 59ft 0kts
27-Apr-18 17:38 33.671464 -117.867469 27 59ft 0kts
27-Apr-18 17:39 33.671464 -117.867469 27 59ft 0kts
27-Apr-18 17:40 33.671464 -117.867469 27 59ft 0kts
27-Apr-18 17:41 33.671464 -117.867469 27 59ft 0kts
27-Apr-18 17:42 33.671464 -117.867469 27 59ft 0kts
27-Apr-18 17:43 33.671464 -117.867469 27 59ft 0kts
27-Apr-18 17:44 33.671464 -117.867469 27 59ft 0kts
27-Apr-18 17:45 33.671464 -117.867469 27 59ft 0kts
27-Apr-18 17:46 33.671464 -117.867469 27 59ft 0kts

Navigation Log

Ident Type
Flight plan parsing failed, navigation log unavailable